Tangier, Indiana
Current Conditions -  °F | °C
As of 12:55 AM on Sunday 23 Nov 2014 (Local Time) from KDNV Reporting Station
Moderate Rain Moderate Rain  
Wind Chill: 44°   Ceiling: 5000
Heat Index: 48°   Visibility: 7mi
Dew Point: 46°   Wind: 12mph
Humidity: 93%   Direction: 190°S
Pressure: 29.91"   Gusts: NA
Location:  39.9707°N, 87.3162°W
Report Text: KDNV 230555Z AUTO 19010KT 7SM RA SCT038 BKN050 OVC075 09/08 A2991 RMK AO2 P0006 60013 T00910080 10118 20090 401250008
Loading
Personal Weather Stations






























Interactive Weather Map New forecast layout! Learn more

10-Day Weather Forecast

Advertisements
Track Severe Weather on mobile